createdAt,value
2018-08-28T00:01:31.605Z,4.10
2018-08-28T00:03:59.909Z,2.87
2018-08-28T00:06:28.177Z,3.23
2018-08-28T00:08:56.669Z,3.87
2018-08-28T00:11:25.140Z,3.40
2018-08-28T00:13:53.415Z,2.87
2018-08-28T00:16:21.691Z,3.47
2018-08-28T00:18:49.941Z,3.50
2018-08-28T00:21:18.217Z,4.00
2018-08-28T00:23:46.653Z,3.50
2018-08-28T00:26:14.898Z,3.83
2018-08-28T00:28:43.154Z,5.10
2018-08-28T00:31:11.417Z,3.43
2018-08-28T00:33:39.673Z,4.93
2018-08-28T00:36:07.958Z,3.70
2018-08-28T00:38:37.310Z,3.37
2018-08-28T00:41:05.590Z,5.37
2018-08-28T00:43:33.839Z,4.50
2018-08-28T00:46:02.137Z,3.47
2018-08-28T00:48:30.407Z,4.03
2018-08-28T00:50:58.677Z,4.87
2018-08-28T00:53:26.971Z,4.40
2018-08-28T00:55:55.243Z,3.50
2018-08-28T00:58:24.569Z,4.10
2018-08-28T01:00:52.860Z,4.40
2018-08-28T01:03:21.097Z,5.37
2018-08-28T01:05:49.411Z,3.77
2018-08-28T01:08:17.681Z,5.03
2018-08-28T01:10:46.989Z,4.80
2018-08-28T01:13:15.239Z,4.67
2018-08-28T01:15:43.513Z,4.80
2018-08-28T01:18:11.759Z,4.60
2018-08-28T01:20:40.014Z,5.20
2018-08-28T01:23:08.302Z,4.80
2018-08-28T01:25:36.557Z,5.20
2018-08-28T01:28:04.964Z,4.87
2018-08-28T01:30:33.969Z,4.77
2018-08-28T01:33:03.928Z,4.83
2018-08-28T01:35:32.369Z,5.23
2018-08-28T01:38:00.756Z,4.77
2018-08-28T01:40:29.545Z,4.80
2018-08-28T01:42:57.837Z,4.80
2018-08-28T01:45:26.115Z,4.63
2018-08-28T01:47:54.390Z,5.27
2018-08-28T01:50:22.714Z,5.23
2018-08-28T01:52:50.997Z,5.10
2018-08-28T01:55:19.250Z,5.10
2018-08-28T01:57:47.513Z,6.13
2018-08-28T02:00:15.762Z,5.13
2018-08-28T02:02:44.053Z,5.73
2018-08-28T02:05:12.327Z,4.93
2018-08-28T02:07:40.640Z,5.53
2018-08-28T02:10:08.960Z,5.37
2018-08-28T02:12:38.280Z,5.90
2018-08-28T02:15:07.569Z,5.47
2018-08-28T02:17:35.917Z,5.77
2018-08-28T02:20:04.833Z,4.73
2018-08-28T02:22:33.125Z,5.47
2018-08-28T02:25:01.479Z,5.50
2018-08-28T02:27:29.736Z,5.80
2018-08-28T02:29:58.061Z,5.90
2018-08-28T02:32:26.329Z,4.90
2018-08-28T02:34:54.613Z,5.53
2018-08-28T02:37:22.881Z,6.83
2018-08-28T02:39:51.206Z,5.70
2018-08-28T02:42:19.517Z,5.53
2018-08-28T02:44:47.803Z,5.00
2018-08-28T02:47:16.069Z,6.10
2018-08-28T02:49:45.381Z,7.90
2018-08-28T02:52:13.680Z,6.67
2018-08-28T02:54:41.987Z,6.10
2018-08-28T02:57:10.299Z,5.60
2018-08-28T02:59:38.558Z,5.20
2018-08-28T03:02:06.933Z,6.67
2018-08-28T03:04:35.217Z,6.70
2018-08-28T03:07:03.484Z,6.60
2018-08-28T03:09:31.801Z,5.40
2018-08-28T03:12:00.109Z,6.70
2018-08-28T03:14:28.367Z,5.73
2018-08-28T03:16:56.629Z,6.30
2018-08-28T03:19:24.929Z,6.20
2018-08-28T03:21:53.290Z,6.23
2018-08-28T03:24:21.552Z,5.53
2018-08-28T03:26:49.844Z,5.60
2018-08-28T03:29:18.109Z,7.13
2018-08-28T03:31:46.420Z,6.13
2018-08-28T03:34:14.818Z,6.30
2018-08-28T03:36:43.113Z,5.57
2018-08-28T03:39:11.486Z,6.53
2018-08-28T03:41:39.773Z,5.80
2018-08-28T03:44:09.069Z,6.73
2018-08-28T03:46:37.468Z,6.57
2018-08-28T03:49:05.757Z,5.87
2018-08-28T03:51:34.061Z,6.50
2018-08-28T03:54:02.329Z,8.47
2018-08-28T03:56:30.641Z,7.57
2018-08-28T03:58:58.912Z,7.03
2018-08-28T04:01:27.215Z,6.00
2018-08-28T04:03:55.530Z,6.27
2018-08-28T04:06:23.825Z,5.97
2018-08-28T04:08:52.144Z,5.80
2018-08-28T04:11:21.444Z,6.33
2018-08-28T04:13:49.740Z,5.37
2018-08-28T04:16:18.021Z,5.50
2018-08-28T04:18:46.305Z,5.00
2018-08-28T04:21:15.700Z,5.63
2018-08-28T04:23:44.018Z,6.67
2018-08-28T04:26:12.301Z,6.60
2018-08-28T04:28:40.635Z,6.10
2018-08-28T04:31:08.925Z,7.70
2018-08-28T04:33:37.222Z,8.47
2018-08-28T04:36:05.525Z,6.83
2018-08-28T04:38:34.877Z,11.83
2018-08-28T04:41:03.153Z,8.20
2018-08-28T04:43:31.565Z,9.20
2018-08-28T04:45:59.829Z,7.20
2018-08-28T04:48:28.208Z,7.60
2018-08-28T04:50:56.458Z,7.33
2018-08-28T04:53:24.786Z,7.63
2018-08-28T04:55:53.225Z,8.53
2018-08-28T04:58:22.596Z,7.53
2018-08-28T05:00:50.960Z,6.97
2018-08-28T05:03:20.262Z,8.33
2018-08-28T05:05:48.713Z,6.70
2018-08-28T05:08:17.026Z,7.83
2018-08-28T05:10:45.405Z,8.90
2018-08-28T05:13:14.772Z,7.00
2018-08-28T05:15:43.170Z,7.97
2018-08-28T05:18:11.431Z,8.20
2018-08-28T05:20:39.849Z,8.40
2018-08-28T05:23:10.247Z,7.47
2018-08-28T05:25:38.542Z,7.20
2018-08-28T05:28:07.021Z,7.83
2018-08-28T05:30:35.388Z,7.07
2018-08-28T05:33:03.649Z,6.23
2018-08-28T05:35:31.949Z,7.50
2018-08-28T05:38:00.263Z,6.17
2018-08-28T05:40:28.500Z,6.83
2018-08-28T05:42:56.772Z,7.47
2018-08-28T05:45:25.170Z,6.67
2018-08-28T05:47:53.445Z,7.23
2018-08-28T05:50:21.742Z,7.43
2018-08-28T05:52:49.995Z,7.23
2018-08-28T05:55:18.291Z,5.77
2018-08-28T05:57:48.601Z,7.70
2018-08-28T06:00:17.941Z,7.47
2018-08-28T06:02:46.302Z,6.40
2018-08-28T06:05:14.658Z,6.30
2018-08-28T06:07:42.965Z,7.20
2018-08-28T06:10:11.245Z,7.33
2018-08-28T06:12:40.608Z,7.10
2018-08-28T06:15:09.049Z,7.60
2018-08-28T06:17:37.340Z,7.40
2018-08-28T06:20:06.105Z,7.47
2018-08-28T06:22:34.438Z,7.33
2018-08-28T06:25:03.857Z,7.30
2018-08-28T06:27:32.149Z,6.07
2018-08-28T06:30:00.399Z,7.13
2018-08-28T06:32:28.753Z,6.83
2018-08-28T06:34:57.026Z,5.87
2018-08-28T06:37:25.467Z,6.60
2018-08-28T06:39:55.641Z,5.73
2018-08-28T06:42:24.922Z,6.23
2018-08-28T06:44:53.185Z,5.43
2018-08-28T06:47:22.497Z,4.90
2018-08-28T06:49:51.820Z,6.00
2018-08-28T06:52:20.120Z,4.97
2018-08-28T06:54:48.390Z,5.20
2018-08-28T06:57:17.758Z,5.50
2018-08-28T06:59:46.326Z,5.67
2018-08-28T07:02:14.592Z,4.67
2018-08-28T07:04:42.893Z,5.47
2018-08-28T07:07:11.366Z,5.80
2018-08-28T07:09:40.665Z,5.90
2018-08-28T07:12:08.970Z,5.63
2018-08-28T07:14:37.242Z,5.40
2018-08-28T07:17:06.557Z,4.90
2018-08-28T07:19:34.853Z,4.97
2018-08-28T07:22:03.444Z,3.70
2018-08-28T07:24:31.713Z,4.40
2018-08-28T07:27:00.057Z,4.47
2018-08-28T07:29:28.321Z,4.83
2018-08-28T07:31:56.680Z,3.80
2018-08-28T07:34:24.889Z,3.90
2018-08-28T07:36:54.236Z,3.83
2018-08-28T07:39:22.565Z,4.40
2018-08-28T07:41:51.893Z,4.13
2018-08-28T07:44:20.399Z,3.67
2018-08-28T07:46:48.675Z,3.50
2018-08-28T07:49:17.047Z,3.97
2018-08-28T07:51:45.353Z,3.50
2018-08-28T07:54:13.619Z,3.27
2018-08-28T07:56:41.915Z,4.30
2018-08-28T07:59:10.187Z,3.20
2018-08-28T08:01:39.205Z,4.00
2018-08-28T08:04:07.509Z,2.87
2018-08-28T08:06:35.845Z,3.90
2018-08-28T08:09:07.688Z,4.33
2018-08-28T08:11:35.989Z,3.10
2018-08-28T08:14:04.349Z,2.50
2018-08-28T08:16:32.617Z,2.60
2018-08-28T08:19:00.913Z,2.60
2018-08-28T08:21:29.235Z,2.17
2018-08-28T08:23:57.554Z,2.90
2018-08-28T08:26:25.864Z,3.30
2018-08-28T08:28:55.245Z,2.60
2018-08-28T08:31:23.572Z,2.77
2018-08-28T08:33:51.909Z,2.47
2018-08-28T08:36:20.230Z,3.30
2018-08-28T08:38:48.554Z,2.60
2018-08-28T08:41:16.905Z,2.93
2018-08-28T08:43:45.202Z,2.80
2018-08-28T08:46:13.562Z,2.80
2018-08-28T08:48:41.822Z,3.10
2018-08-28T08:51:10.110Z,2.97
2018-08-28T08:53:38.481Z,2.70
2018-08-28T08:56:06.801Z,4.27
2018-08-28T08:58:36.084Z,4.40
2018-08-28T09:01:04.382Z,3.70
2018-08-28T09:03:32.695Z,3.70
2018-08-28T09:06:01.222Z,3.67
2018-08-28T09:08:29.475Z,4.50
2018-08-28T09:10:57.793Z,4.30
2018-08-28T09:13:26.096Z,4.50
2018-08-28T09:15:54.371Z,4.50
2018-08-28T09:18:23.727Z,5.27
2018-08-28T09:20:52.017Z,5.60
2018-08-28T09:23:20.313Z,3.70
2018-08-28T09:25:48.621Z,3.77
2018-08-28T09:28:16.985Z,3.80
2018-08-28T09:30:45.278Z,3.10
2018-08-28T09:33:13.577Z,3.30
2018-08-28T09:35:41.901Z,3.20
2018-08-28T09:38:11.330Z,3.70
2018-08-28T09:40:39.669Z,2.50
2018-08-28T09:43:07.966Z,2.60
2018-08-28T09:45:36.237Z,2.23
2018-08-28T09:48:04.624Z,2.70
2018-08-28T09:50:33.074Z,2.80
2018-08-28T09:53:01.357Z,2.70
2018-08-28T09:55:29.652Z,3.10
2018-08-28T09:57:59.039Z,3.33
2018-08-28T10:00:30.121Z,3.07
2018-08-28T10:02:59.239Z,3.60
2018-08-28T10:05:27.533Z,3.27
2018-08-28T10:07:55.924Z,3.27
2018-08-28T10:10:25.234Z,3.03
2018-08-28T10:12:53.545Z,2.97
2018-08-28T10:15:21.851Z,3.50
2018-08-28T10:17:50.138Z,2.40
2018-08-28T10:20:18.402Z,2.80
2018-08-28T10:22:46.815Z,2.40
2018-08-28T10:25:15.081Z,3.30
2018-08-28T10:27:43.388Z,2.63
2018-08-28T10:30:11.702Z,3.20
2018-08-28T10:32:39.981Z,2.90
2018-08-28T10:35:08.717Z,2.90
2018-08-28T10:37:37.032Z,3.47
2018-08-28T10:40:06.399Z,3.20
2018-08-28T10:42:34.681Z,3.90
2018-08-28T10:45:03.054Z,2.90
2018-08-28T10:47:31.319Z,3.43
2018-08-28T10:49:59.786Z,3.40
2018-08-28T10:52:28.155Z,3.20
2018-08-28T10:54:56.672Z,3.27
2018-08-28T10:57:25.006Z,2.73
2018-08-28T10:59:54.041Z,2.97
2018-08-28T11:02:22.549Z,3.30
2018-08-28T11:04:50.845Z,3.53
2018-08-28T11:07:19.129Z,3.63
2018-08-28T11:09:47.417Z,3.23
2018-08-28T11:12:16.721Z,3.90
2018-08-28T11:14:45.006Z,3.70
2018-08-28T11:17:13.269Z,3.60
2018-08-28T11:19:41.596Z,4.40
2018-08-28T11:22:10.052Z,3.17
2018-08-28T11:24:38.334Z,3.90
2018-08-28T11:27:06.594Z,3.40
2018-08-28T11:29:35.278Z,3.97
2018-08-28T11:32:04.710Z,3.40
2018-08-28T11:34:33.969Z,2.93
2018-08-28T11:37:02.376Z,3.27
2018-08-28T11:39:30.638Z,3.63
2018-08-28T11:42:00.984Z,3.30
2018-08-28T11:44:33.238Z,3.63
2018-08-28T11:47:01.625Z,3.97
2018-08-28T11:49:29.963Z,3.80
2018-08-28T11:51:58.276Z,3.57
2018-08-28T11:54:26.567Z,3.37
2018-08-28T11:56:56.117Z,3.43
2018-08-28T11:59:24.638Z,4.07
2018-08-28T12:01:52.978Z,2.70
2018-08-28T12:04:21.312Z,3.20
2018-08-28T12:06:49.707Z,4.40
2018-08-28T12:09:17.891Z,3.30
2018-08-28T12:11:46.293Z,2.73
2018-08-28T12:14:14.569Z,2.80
2018-08-28T12:16:42.887Z,3.10
2018-08-28T12:19:11.186Z,3.20
2018-08-28T12:21:40.157Z,2.67
2018-08-28T12:24:09.485Z,2.80
2018-08-28T12:26:39.321Z,2.90
2018-08-28T12:29:07.614Z,3.87
2018-08-28T12:31:37.014Z,3.37
2018-08-28T12:34:06.433Z,3.23
2018-08-28T12:36:34.805Z,4.10
2018-08-28T12:39:05.561Z,3.33
2018-08-28T12:41:33.830Z,3.50
2018-08-28T12:44:02.262Z,2.70
2018-08-28T12:46:30.464Z,3.90
2018-08-28T12:48:58.797Z,3.20
2018-08-28T12:51:28.313Z,2.37
2018-08-28T12:53:56.493Z,3.33
2018-08-28T12:56:24.773Z,3.63
2018-08-28T12:58:54.218Z,3.13
2018-08-28T13:01:22.457Z,2.80
2018-08-28T13:03:50.772Z,3.30
2018-08-28T13:06:20.113Z,3.37
2018-08-28T13:08:48.426Z,3.20
2018-08-28T13:11:16.709Z,2.70
2018-08-28T13:13:46.200Z,3.30
2018-08-28T13:16:14.473Z,3.80
2018-08-28T13:18:42.838Z,2.83
2018-08-28T13:21:11.086Z,2.90
2018-08-28T13:23:40.410Z,3.40
2018-08-28T13:26:08.920Z,3.20
2018-08-28T13:28:37.054Z,3.30
2018-08-28T13:31:05.621Z,3.87
2018-08-28T13:33:33.906Z,3.80
2018-08-28T13:36:02.238Z,3.03
2018-08-28T13:38:30.505Z,3.33
2018-08-28T13:40:58.828Z,3.95
2018-08-28T13:43:27.146Z,3.73
2018-08-28T13:45:55.477Z,4.17
2018-08-28T13:48:23.801Z,3.53
2018-08-28T13:50:52.091Z,3.83
2018-08-28T13:53:20.365Z,3.43
2018-08-28T13:55:48.810Z,3.43
2018-08-28T13:58:17.130Z,3.60
2018-08-28T14:00:46.534Z,4.20
2018-08-28T14:03:14.846Z,3.53
2018-08-28T14:05:44.169Z,3.93
2018-08-28T14:08:13.615Z,3.20
2018-08-28T14:10:42.993Z,3.60
2018-08-28T14:13:11.303Z,3.83
2018-08-28T14:15:39.627Z,3.87
2018-08-28T14:18:07.954Z,3.90
2018-08-28T14:20:36.301Z,5.10
2018-08-28T14:23:04.765Z,4.70
2018-08-28T14:25:33.162Z,4.53
2018-08-28T14:28:01.466Z,5.03
2018-08-28T14:30:31.836Z,4.70
2018-08-28T14:33:00.257Z,4.07
2018-08-28T14:35:29.636Z,4.40
2018-08-28T14:37:57.955Z,5.43
2018-08-28T14:40:26.356Z,4.60
2018-08-28T14:42:54.577Z,3.47
2018-08-28T14:45:22.881Z,3.80
2018-08-28T14:47:51.479Z,3.30
2018-08-28T14:50:19.897Z,4.10
2018-08-28T14:52:48.167Z,3.47
2018-08-28T14:55:17.593Z,3.70
2018-08-28T14:57:45.893Z,4.67
2018-08-28T15:00:14.178Z,3.87
2018-08-28T15:02:42.502Z,3.60
2018-08-28T15:05:10.758Z,4.63
2018-08-28T15:07:40.201Z,3.73
2018-08-28T15:10:08.509Z,4.37
2018-08-28T15:12:36.855Z,3.63
2018-08-28T15:15:05.198Z,3.80
2018-08-28T15:17:33.920Z,3.83
2018-08-28T15:20:02.210Z,4.00
2018-08-28T15:22:30.685Z,3.10
2018-08-28T15:24:58.991Z,4.57
2018-08-28T15:27:27.436Z,4.70
2018-08-28T15:29:55.729Z,4.27
2018-08-28T15:32:24.005Z,3.70
2018-08-28T15:34:52.333Z,4.30
2018-08-28T15:37:20.668Z,4.40
2018-08-28T15:39:49.071Z,4.30
2018-08-28T15:42:18.357Z,5.43
2018-08-28T15:44:47.702Z,4.13
2018-08-28T15:47:15.977Z,3.90
2018-08-28T15:49:44.286Z,5.10
2018-08-28T15:55:02.986Z,4.20
2018-08-28T15:57:31.220Z,5.50
2018-08-28T15:59:59.498Z,4.43
2018-08-28T16:02:27.784Z,4.47
2018-08-28T16:04:56.078Z,4.63
2018-08-28T16:07:24.329Z,3.50
2018-08-28T16:09:52.627Z,3.80
2018-08-28T16:12:20.892Z,4.07
2018-08-28T16:14:49.189Z,4.60
2018-08-28T16:17:17.473Z,3.77
2018-08-28T16:19:45.766Z,4.57
2018-08-28T16:22:16.148Z,4.63
2018-08-28T16:24:44.437Z,4.30
2018-08-28T16:27:12.756Z,3.67
2018-08-28T16:29:41.041Z,4.50
2018-08-28T16:32:10.311Z,4.10
2018-08-28T16:34:39.786Z,4.57
2018-08-28T16:37:08.139Z,4.93
2018-08-28T16:39:36.510Z,3.97
2018-08-28T16:42:04.797Z,4.73
2018-08-28T16:44:33.109Z,3.87
2018-08-28T16:47:01.390Z,4.40
2018-08-28T16:49:29.661Z,4.60
2018-08-28T16:51:58.946Z,3.87
2018-08-28T16:54:27.215Z,4.80
2018-08-28T16:56:55.514Z,4.90
2018-08-28T16:59:24.861Z,3.80
2018-08-28T17:01:54.656Z,4.10
2018-08-28T17:04:24.890Z,4.80
2018-08-28T17:06:53.182Z,4.43
2018-08-28T17:09:21.446Z,4.30
2018-08-28T17:11:49.714Z,4.87
2018-08-28T17:14:18.039Z,4.17
2018-08-28T17:16:46.339Z,4.30
2018-08-28T17:19:14.662Z,3.73
2018-08-28T17:21:42.930Z,4.50
2018-08-28T17:24:12.453Z,3.50
2018-08-28T17:26:40.774Z,4.20
2018-08-28T17:29:09.117Z,3.60
2018-08-28T17:31:37.397Z,4.57
2018-08-28T17:34:05.808Z,3.93
2018-08-28T17:36:34.133Z,3.90
2018-08-28T17:39:03.953Z,4.40
2018-08-28T17:41:32.282Z,4.37
2018-08-28T17:44:01.597Z,4.07
2018-08-28T17:46:32.001Z,4.50
2018-08-28T17:49:00.351Z,4.30
2018-08-28T17:51:28.586Z,5.07
2018-08-28T17:53:57.860Z,4.03
2018-08-28T17:56:27.123Z,4.30
2018-08-28T17:58:55.469Z,4.37
2018-08-28T18:01:23.794Z,4.23
2018-08-28T18:03:52.150Z,3.80
2018-08-28T18:06:20.348Z,4.17
2018-08-28T18:08:48.622Z,3.47
2018-08-28T18:11:16.945Z,4.47
2018-08-28T18:13:45.201Z,4.43
2018-08-28T18:16:15.607Z,4.37
2018-08-28T18:18:43.913Z,3.90
2018-08-28T18:21:12.185Z,4.30
2018-08-28T18:23:40.683Z,4.57
2018-08-28T18:26:09.057Z,4.07
2018-08-28T18:28:37.400Z,4.10
2018-08-28T18:31:05.704Z,5.10
2018-08-28T18:33:34.025Z,4.20
2018-08-28T18:36:02.449Z,4.43
2018-08-28T18:38:31.770Z,4.00
2018-08-28T18:41:00.059Z,4.90
2018-08-28T18:43:32.906Z,4.07
2018-08-28T18:46:01.198Z,4.20
2018-08-28T18:48:29.513Z,4.20
2018-08-28T18:50:58.917Z,4.40
2018-08-28T18:53:27.269Z,4.53
2018-08-28T18:55:55.542Z,4.50
2018-08-28T18:58:24.021Z,4.27
2018-08-28T19:00:52.320Z,4.50
2018-08-28T19:03:20.709Z,4.30
2018-08-28T19:05:48.970Z,3.90
2018-08-28T19:08:18.254Z,5.10
2018-08-28T19:10:47.592Z,4.63
2018-08-28T19:13:15.906Z,4.87
2018-08-28T19:15:46.348Z,4.60
2018-08-28T19:18:14.684Z,3.57
2018-08-28T19:20:44.121Z,4.20
2018-08-28T19:23:12.477Z,4.30
2018-08-28T19:25:40.753Z,5.33
2018-08-28T19:28:09.086Z,5.53
2018-08-28T19:30:37.308Z,5.17
2018-08-28T19:33:05.698Z,4.90
2018-08-28T19:35:33.949Z,5.10
2018-08-28T19:38:02.217Z,5.10
2018-08-28T19:40:30.506Z,5.40
2018-08-28T19:42:58.899Z,5.70
2018-08-28T19:45:27.158Z,5.00
2018-08-28T19:47:55.425Z,5.33
2018-08-28T19:50:23.673Z,4.80
2018-08-28T19:52:51.957Z,5.43
2018-08-28T19:55:21.389Z,5.00
2018-08-28T19:57:49.688Z,6.33
2018-08-28T20:00:20.845Z,5.23
2018-08-28T20:02:49.133Z,5.00
2018-08-28T20:05:17.394Z,5.77
2018-08-28T20:07:45.806Z,5.17
2018-08-28T20:10:14.254Z,4.60
2018-08-28T20:12:42.521Z,5.60
2018-08-28T20:15:10.821Z,4.90
2018-08-28T20:17:39.154Z,5.00
2018-08-28T20:20:07.422Z,5.60
2018-08-28T20:22:35.725Z,5.03
2018-08-28T20:25:04.005Z,5.33
2018-08-28T20:27:32.281Z,5.97
2018-08-28T20:30:00.605Z,5.70
2018-08-28T20:32:28.880Z,5.70
2018-08-28T20:34:57.153Z,6.03
2018-08-28T20:37:25.753Z,5.20
2018-08-28T20:39:53.946Z,5.30
2018-08-28T20:42:22.210Z,4.70
2018-08-28T20:44:50.723Z,5.00
2018-08-28T20:47:19.005Z,5.77
2018-08-28T20:49:47.281Z,5.93
2018-08-28T20:52:15.745Z,6.90
2018-08-28T20:54:44.010Z,5.70
2018-08-28T20:57:12.263Z,6.10
2018-08-28T20:59:40.547Z,5.57
2018-08-28T21:02:08.821Z,6.00
2018-08-28T21:04:37.069Z,5.00
2018-08-28T21:07:05.730Z,5.60
2018-08-28T21:09:33.990Z,5.97
2018-08-28T21:12:02.264Z,6.07
2018-08-28T21:14:31.552Z,5.67
2018-08-28T21:16:59.835Z,5.80
2018-08-28T21:19:28.079Z,5.53
2018-08-28T21:21:56.352Z,6.20
2018-08-28T21:24:24.601Z,5.30
2018-08-28T21:26:52.883Z,5.93
2018-08-28T21:29:21.210Z,8.17
2018-08-28T21:31:49.841Z,6.90
2018-08-28T21:34:18.097Z,5.50
2018-08-28T21:36:46.381Z,5.37
2018-08-28T21:39:14.635Z,6.57
2018-08-28T21:41:42.885Z,5.93
2018-08-28T21:44:11.454Z,6.10
2018-08-28T21:46:39.700Z,7.20
2018-08-28T21:49:07.977Z,6.07
2018-08-28T21:51:36.225Z,7.10
2018-08-28T21:54:04.561Z,8.20
2018-08-28T21:56:32.849Z,8.80
2018-08-28T21:59:02.205Z,8.67
2018-08-28T22:01:30.538Z,7.10
2018-08-28T22:03:59.881Z,6.60
2018-08-28T22:06:33.430Z,6.10
2018-08-28T22:09:01.711Z,6.27
2018-08-28T22:11:29.986Z,6.90
2018-08-28T22:13:58.244Z,7.43
2018-08-28T22:16:26.538Z,6.20
2018-08-28T22:18:54.805Z,6.50
2018-08-28T22:21:23.066Z,6.40
2018-08-28T22:23:51.565Z,5.57
2018-08-28T22:26:19.830Z,6.90
2018-08-28T22:28:48.101Z,5.90
2018-08-28T22:31:16.385Z,5.80
2018-08-28T22:33:46.742Z,7.40
2018-08-28T22:36:15.003Z,7.60
2018-08-28T22:38:43.410Z,6.20
2018-08-28T22:41:11.720Z,6.30
2018-08-28T22:43:39.995Z,6.43
2018-08-28T22:46:09.292Z,6.43
2018-08-28T22:48:37.534Z,6.70
2018-08-28T22:51:05.849Z,7.33
2018-08-28T22:53:34.563Z,8.27
2018-08-28T22:56:02.822Z,7.37
2018-08-28T22:58:31.093Z,6.53
2018-08-28T23:01:01.278Z,6.20
2018-08-28T23:03:29.549Z,7.57
2018-08-28T23:05:57.796Z,6.37
2018-08-28T23:08:26.172Z,7.40
2018-08-28T23:10:54.409Z,7.10
2018-08-28T23:13:22.689Z,6.87
2018-08-28T23:15:52.094Z,7.60
2018-08-28T23:18:21.466Z,7.10
2018-08-28T23:20:49.713Z,6.23
2018-08-28T23:23:17.997Z,7.57
2018-08-28T23:25:46.247Z,8.30
2018-08-28T23:28:14.485Z,9.80
2018-08-28T23:30:42.767Z,8.33
2018-08-28T23:33:11.009Z,7.33
2018-08-28T23:35:39.280Z,7.63
2018-08-28T23:38:07.769Z,7.57
2018-08-28T23:40:36.005Z,9.93
2018-08-28T23:43:04.286Z,7.90
2018-08-28T23:45:32.590Z,8.30
2018-08-28T23:48:00.834Z,8.07
2018-08-28T23:50:29.101Z,7.70
2018-08-28T23:52:57.387Z,9.03
2018-08-28T23:55:25.677Z,7.80
2018-08-28T23:57:53.921Z,8.03
